createdAt,value
2022-07-25T00:02:07.301Z,49.51
2022-07-25T00:07:10.493Z,50.23
2022-07-25T00:12:12.078Z,50.13
2022-07-25T00:17:14.174Z,50.44
2022-07-25T00:22:15.797Z,50.68
2022-07-25T00:27:17.392Z,50.77
2022-07-25T00:32:19.044Z,51.54
2022-07-25T00:37:20.657Z,51.60
2022-07-25T00:42:24.130Z,51.97
2022-07-25T00:47:26.114Z,51.99
2022-07-25T00:52:27.839Z,52.56
2022-07-25T00:57:29.406Z,53.17
2022-07-25T01:02:31.059Z,53.35
2022-07-25T01:07:32.928Z,54.08
2022-07-25T01:12:52.571Z,54.38
2022-07-25T01:17:54.373Z,55.16
2022-07-25T01:22:56.722Z,55.80
2022-07-25T01:27:58.463Z,55.94
2022-07-25T01:33:00.468Z,55.89
2022-07-25T01:38:08.801Z,55.93
2022-07-25T01:43:11.257Z,56.31
2022-07-25T01:48:12.878Z,57.01
2022-07-25T01:53:14.534Z,56.81
2022-07-25T01:58:16.156Z,56.89
2022-07-25T02:03:30.112Z,57.36
2022-07-25T02:08:31.952Z,56.51
2022-07-25T02:13:34.985Z,55.88
2022-07-25T02:18:36.656Z,56.13
2022-07-25T02:23:38.320Z,56.64
2022-07-25T02:28:40.711Z,56.48
2022-07-25T02:33:42.440Z,56.15
2022-07-25T02:38:44.027Z,56.82
2022-07-25T02:43:45.586Z,57.21
2022-07-25T02:48:47.316Z,56.21
2022-07-25T02:53:58.282Z,55.71
2022-07-25T02:59:00.395Z,55.25
2022-07-25T03:04:02.069Z,55.56
2022-07-25T03:09:04.590Z,55.21
2022-07-25T03:14:08.491Z,55.37
2022-07-25T03:19:10.409Z,55.73
2022-07-25T03:24:12.055Z,55.95
2022-07-25T03:29:13.876Z,56.47
2022-07-25T03:34:15.540Z,55.69
2022-07-25T03:39:17.260Z,55.96
2022-07-25T03:44:20.151Z,56.87
2022-07-25T03:49:21.771Z,56.46
2022-07-25T03:54:23.341Z,56.17
2022-07-25T03:59:26.234Z,55.90
2022-07-25T04:04:27.830Z,55.88
2022-07-25T04:09:31.111Z,55.82
2022-07-25T04:14:35.319Z,54.96
2022-07-25T04:19:37.065Z,55.10
2022-07-25T04:24:38.737Z,55.07
2022-07-25T04:29:40.338Z,54.63
2022-07-25T04:34:43.751Z,54.54
2022-07-25T04:39:45.374Z,54.38
2022-07-25T04:44:47.017Z,55.03
2022-07-25T04:49:48.644Z,54.45
2022-07-25T04:54:50.219Z,53.00
2022-07-25T04:59:51.941Z,52.72
2022-07-25T05:04:53.536Z,51.93
2022-07-25T05:09:55.262Z,52.65
2022-07-25T05:14:57.047Z,51.39
2022-07-25T05:19:58.926Z,50.60
2022-07-25T05:25:02.418Z,50.38
2022-07-25T05:30:05.825Z,49.71
2022-07-25T05:35:09.089Z,48.92
2022-07-25T05:40:10.823Z,47.22
2022-07-25T05:45:12.718Z,46.92
2022-07-25T05:50:14.360Z,47.29
2022-07-25T05:55:16.006Z,46.28
2022-07-25T06:00:17.857Z,46.82
2022-07-25T06:05:19.471Z,45.84
2022-07-25T06:10:21.626Z,45.21
2022-07-25T06:15:26.882Z,45.78
2022-07-25T06:20:28.786Z,44.61
2022-07-25T06:25:30.977Z,44.39
2022-07-25T06:30:33.436Z,44.81
2022-07-25T06:35:35.188Z,44.15
2022-07-25T06:40:36.784Z,44.17
2022-07-25T06:45:38.465Z,43.76
2022-07-25T06:50:41.635Z,43.35
2022-07-25T06:55:43.310Z,43.11
2022-07-25T07:00:44.919Z,43.04
2022-07-25T07:05:46.695Z,42.45
2022-07-25T07:10:48.543Z,42.39
2022-07-25T07:15:50.898Z,42.71
2022-07-25T07:20:52.967Z,41.81
2022-07-25T07:25:54.615Z,42.69
2022-07-25T07:31:15.893Z,41.91
2022-07-25T07:36:17.984Z,42.09
2022-07-25T07:41:19.642Z,41.33
2022-07-25T07:46:21.276Z,41.45
2022-07-25T07:51:22.881Z,41.78
2022-07-25T07:56:24.502Z,41.42
2022-07-25T08:01:26.985Z,41.11
2022-07-25T08:06:29.043Z,40.48
2022-07-25T08:11:30.718Z,40.38
2022-07-25T08:16:32.941Z,41.29
2022-07-25T08:21:34.562Z,41.06
2022-07-25T08:26:37.298Z,39.89
2022-07-25T08:31:38.995Z,40.51
2022-07-25T08:36:40.737Z,40.19
2022-07-25T08:41:42.534Z,39.67
2022-07-25T08:46:45.515Z,39.86
2022-07-25T08:51:47.646Z,39.09
2022-07-25T08:56:53.260Z,39.20
2022-07-25T09:01:54.989Z,39.93
2022-07-25T09:06:56.633Z,39.39
2022-07-25T09:11:58.668Z,37.31
2022-07-25T09:17:06.405Z,37.13
2022-07-25T09:22:24.289Z,37.62
2022-07-25T09:27:25.946Z,37.41
2022-07-25T09:32:27.579Z,35.52
2022-07-25T09:37:29.215Z,36.09
2022-07-25T09:42:32.553Z,35.72
2022-07-25T09:47:36.977Z,35.47
2022-07-25T09:52:38.902Z,35.04
2022-07-25T09:57:41.151Z,35.03
2022-07-25T10:02:49.801Z,34.78
2022-07-25T10:07:53.430Z,35.60
2022-07-25T10:13:08.027Z,34.70
2022-07-25T10:18:13.387Z,34.96
2022-07-25T10:23:26.332Z,34.53
2022-07-25T10:28:39.807Z,34.71
2022-07-25T10:33:42.272Z,33.45
2022-07-25T10:38:45.962Z,33.87
2022-07-25T10:43:50.723Z,34.58
2022-07-25T10:49:03.390Z,33.75
2022-07-25T10:54:18.201Z,33.54
2022-07-25T10:59:46.798Z,33.66
2022-07-25T11:04:59.384Z,33.91
2022-07-25T11:10:03.011Z,33.68
2022-07-25T11:15:06.879Z,33.17
2022-07-25T11:20:10.625Z,32.92
2022-07-25T11:25:16.285Z,32.89
2022-07-25T11:30:19.944Z,32.92
2022-07-25T11:35:39.641Z,33.39
2022-07-25T11:40:44.705Z,33.03
2022-07-25T11:45:56.950Z,33.22
2022-07-25T11:50:58.798Z,33.45
2022-07-25T11:56:39.835Z,31.63
2022-07-25T12:01:37.555Z,32.32
2022-07-25T12:06:39.937Z,32.90
2022-07-25T12:11:41.830Z,33.41
2022-07-25T12:16:43.552Z,32.82
2022-07-25T12:21:45.628Z,31.92
2022-07-25T12:26:47.270Z,31.51
2022-07-25T12:31:48.943Z,30.94
2022-07-25T12:36:50.675Z,30.70
2022-07-25T12:41:52.238Z,31.28
2022-07-25T12:46:53.841Z,32.06
2022-07-25T12:51:58.219Z,31.38
2022-07-25T12:57:00.228Z,32.65
2022-07-25T13:02:01.980Z,32.64
2022-07-25T13:07:03.923Z,32.79
2022-07-25T13:12:06.045Z,31.64
2022-07-25T13:17:07.799Z,32.09
2022-07-25T13:22:09.611Z,32.55
2022-07-25T13:27:11.508Z,32.92
2022-07-25T13:32:13.650Z,33.27
2022-07-25T13:37:15.562Z,33.41
2022-07-25T13:42:17.310Z,33.07
2022-07-25T13:47:19.008Z,33.25
2022-07-25T13:52:20.718Z,33.02
2022-07-25T13:57:22.394Z,33.24
2022-07-25T14:02:24.115Z,33.57
2022-07-25T14:07:25.806Z,32.92
2022-07-25T14:12:27.661Z,32.82
2022-07-25T14:17:30.455Z,32.46
2022-07-25T14:22:32.346Z,31.67
2022-07-25T14:27:34.443Z,32.06
2022-07-25T14:32:36.356Z,32.61
2022-07-25T14:37:38.125Z,32.40
2022-07-25T14:42:41.774Z,31.81
2022-07-25T14:47:43.394Z,31.94
2022-07-25T14:52:45.025Z,31.79
2022-07-25T14:57:46.671Z,31.68
2022-07-25T15:02:48.259Z,32.00
2022-07-25T15:07:49.838Z,31.86
2022-07-25T15:13:07.595Z,31.94
2022-07-25T15:18:14.132Z,31.92
2022-07-25T15:23:15.905Z,32.25
2022-07-25T15:28:17.923Z,31.91
2022-07-25T15:33:19.798Z,31.30
2022-07-25T15:38:21.455Z,31.74
2022-07-25T15:43:24.019Z,31.76
2022-07-25T15:48:27.673Z,31.96
2022-07-25T15:53:30.274Z,31.40
2022-07-25T15:58:31.886Z,31.28
2022-07-25T16:03:33.535Z,31.69
2022-07-25T16:08:36.274Z,31.22
2022-07-25T16:13:37.858Z,30.42
2022-07-25T16:18:39.523Z,30.46
2022-07-25T16:23:45.510Z,30.78
2022-07-25T16:28:47.591Z,31.21
2022-07-25T16:33:49.347Z,31.59
2022-07-25T16:38:53.325Z,31.07
2022-07-25T16:43:54.928Z,31.22
2022-07-25T16:48:56.616Z,30.49
2022-07-25T16:53:58.312Z,31.11
2022-07-25T16:59:00.993Z,30.85
2022-07-25T17:04:02.981Z,30.46
2022-07-25T17:09:05.428Z,30.87
2022-07-25T17:14:07.326Z,30.96
2022-07-25T17:19:09.285Z,31.10
2022-07-25T17:24:11.237Z,30.92
2022-07-25T17:29:12.915Z,30.97
2022-07-25T17:34:14.539Z,31.09
2022-07-25T17:39:16.417Z,31.60
2022-07-25T17:44:18.529Z,31.70
2022-07-25T17:49:21.654Z,31.30
2022-07-25T17:54:23.415Z,31.75
2022-07-25T17:59:25.279Z,32.05
2022-07-25T18:04:27.092Z,31.76
2022-07-25T18:09:29.217Z,32.77
2022-07-25T18:14:31.125Z,35.29
2022-07-25T18:19:33.024Z,39.07
2022-07-25T18:24:34.766Z,41.41
2022-07-25T18:29:38.458Z,41.84
2022-07-25T18:34:40.152Z,42.32
2022-07-25T18:39:42.462Z,42.75
2022-07-25T18:44:44.080Z,43.15
2022-07-25T18:49:45.725Z,43.68
2022-07-25T18:54:47.481Z,44.02
2022-07-25T18:59:49.092Z,44.34
2022-07-25T19:04:50.747Z,44.19
2022-07-25T19:09:52.338Z,46.17
2022-07-25T19:14:54.737Z,47.08
2022-07-25T19:19:56.409Z,49.05
2022-07-25T19:24:57.986Z,50.10
2022-07-25T19:29:59.774Z,50.62
2022-07-25T19:35:02.379Z,50.50
2022-07-25T19:40:06.417Z,50.04
2022-07-25T19:45:09.748Z,50.46
2022-07-25T19:50:11.424Z,50.06
2022-07-25T19:55:13.173Z,50.44
2022-07-25T20:00:15.212Z,50.63
2022-07-25T20:05:17.210Z,51.79
2022-07-25T20:10:18.932Z,52.65
2022-07-25T20:15:20.747Z,52.26
2022-07-25T20:20:22.501Z,53.10
2022-07-25T20:25:24.289Z,56.21
2022-07-25T20:30:26.169Z,59.90
2022-07-25T20:35:33.935Z,65.10
2022-07-25T20:40:35.790Z,66.02
2022-07-25T20:45:38.744Z,68.54
2022-07-25T20:50:40.588Z,71.28
2022-07-25T20:55:42.284Z,74.31
2022-07-25T21:00:44.136Z,72.09
2022-07-25T21:05:45.788Z,73.24
2022-07-25T21:10:47.379Z,72.58
2022-07-25T21:15:48.949Z,69.72
2022-07-25T21:20:51.041Z,69.55
2022-07-25T21:25:52.909Z,68.47
2022-07-25T21:30:54.546Z,70.52
2022-07-25T21:35:56.142Z,69.39
2022-07-25T21:40:57.982Z,69.46
2022-07-25T21:45:59.674Z,70.67
2022-07-25T21:51:01.327Z,71.75
2022-07-25T21:56:09.352Z,73.30
2022-07-25T22:01:11.187Z,73.10
2022-07-25T22:06:12.915Z,70.52
2022-07-25T22:11:20.720Z,71.17
2022-07-25T22:16:36.176Z,71.74
2022-07-25T22:21:39.429Z,72.32
2022-07-25T22:26:41.106Z,70.36
2022-07-25T22:31:44.525Z,68.02
2022-07-25T22:36:46.475Z,65.99
2022-07-25T22:41:48.149Z,64.54
2022-07-25T22:46:49.820Z,63.29
2022-07-25T22:51:51.409Z,63.42
2022-07-25T22:56:53.041Z,64.43
2022-07-25T23:01:54.978Z,65.35
2022-07-25T23:06:56.610Z,66.74
2022-07-25T23:11:58.537Z,67.02
2022-07-25T23:17:18.447Z,67.46
2022-07-25T23:22:21.453Z,68.96
2022-07-25T23:27:23.294Z,67.47
2022-07-25T23:32:24.907Z,68.74
2022-07-25T23:37:26.657Z,69.06
2022-07-25T23:42:28.223Z,68.74
2022-07-25T23:47:39.286Z,67.69
2022-07-25T23:52:42.238Z,68.22
2022-07-25T23:57:43.866Z,68.60
